Terminal Aerodrome Forecast
Issued by NWS

Home | Current Version | Previous Version | Text Only | Print | Product List | Glossary Off
Versions: 1 2 3 4 5 6 7 8 9 10 11 12 13 14 15 16 17 18 19 20 21

748
FTUS41 KCLE 061730
TAFFDY
TAF
KFDY 061730Z 0618/0718 22010KT 4SM HZ BKN018
     FM061900 22010KT P6SM SCT025
     FM070200 22005KT P6SM SCT025 BKN060=

USA.gov is the U.S. government's official web portal to all federal, state and local government web resources and services.